Time;durP1;ratioP1;P1;durP2;ratioP2;P2;SDS_P1;SDS_P2;PMS_P1;PMS_P2;Temp;Humidity;BMP_temperature;BMP_pressure;BME280_temperature;BME280_humidity;BME280_pressure;Samples;Min_cycle;Max_cycle;Signal;HPM_P1;HPM_P2
2021/12/06 00:01:47;;;;;;;33.80;15.38;;;;;;;2.73;100.00;100308.78;4985331;28;20049;-59
2021/12/06 00:04:38;;;;;;;24.83;12.40;;;;;;;2.25;100.00;100306.03;4968521;28;20146;-60
2021/12/06 00:07:24;;;;;;;23.70;12.32;;;;;;;1.71;100.00;100307.44;4945443;28;20096;-60
2021/12/06 00:10:11;;;;;;;28.60;13.27;;;;;;;1.63;100.00;100306.38;4985419;28;20717;-64
2021/12/06 00:12:55;;;;;;;24.23;12.40;;;;;;;1.56;100.00;100311.41;4981347;28;20070;-59
2021/12/06 00:15:41;;;;;;;22.83;12.45;;;;;;;1.73;100.00;100315.28;4968740;28;20051;-59
2021/12/06 00:18:25;;;;;;;22.10;11.80;;;;;;;1.13;100.00;100309.44;4976690;28;20560;-60
2021/12/06 00:21:11;;;;;;;26.13;12.43;;;;;;;1.47;100.00;100313.78;4948074;28;20065;-58
2021/12/06 00:23:57;;;;;;;25.70;12.15;;;;;;;1.43;100.00;100309.34;4951557;28;20494;-67
2021/12/06 00:26:41;;;;;;;27.73;11.93;;;;;;;1.44;100.00;100316.31;4974583;28;20066;-61
2021/12/06 00:29:26;;;;;;;27.80;12.65;;;;;;;1.48;100.00;100320.78;4964074;28;20116;-60
2021/12/06 00:32:11;;;;;;;27.23;13.00;;;;;;;1.54;100.00;100316.59;4971543;28;20056;-56
2021/12/06 00:34:56;;;;;;;30.50;13.48;;;;;;;1.81;100.00;100313.72;4964896;28;20088;-64
2021/12/06 00:37:53;;;;;;;25.67;13.32;;;;;;;1.95;100.00;100314.94;4988407;28;20073;-59
2021/12/06 00:40:42;;;;;;;27.85;14.13;;;;;;;1.96;100.00;100316.72;4971767;28;20041;-60
2021/12/06 00:43:27;;;;;;;25.83;13.68;;;;;;;1.47;100.00;100298.13;4969225;28;20057;-60
2021/12/06 00:46:13;;;;;;;31.55;14.65;;;;;;;1.42;100.00;100310.19;4973608;28;20101;-60
2021/12/06 00:48:57;;;;;;;33.20;13.95;;;;;;;1.36;100.00;100318.75;4987486;28;20799;-67
2021/12/06 00:51:41;;;;;;;28.67;14.23;;;;;;;1.34;100.00;100324.78;4986561;28;20122;-66
2021/12/06 00:54:26;;;;;;;29.80;14.13;;;;;;;1.32;100.00;100314.31;4988014;28;20092;-64
2021/12/06 00:57:13;;;;;;;28.98;14.02;;;;;;;1.51;100.00;100310.41;4953408;28;20296;-61
2021/12/06 00:59:58;;;;;;;30.33;13.70;;;;;;;1.40;100.00;100311.88;4959185;28;20081;-68
2021/12/06 01:02:43;;;;;;;31.70;14.65;;;;;;;1.59;100.00;100307.16;4967217;28;20141;-63
2021/12/06 01:05:27;;;;;;;31.05;14.15;;;;;;;1.59;100.00;100294.09;4952188;28;20525;-63
2021/12/06 01:08:12;;;;;;;30.02;15.40;;;;;;;1.69;100.00;100298.66;4969623;28;20132;-62
2021/12/06 01:10:57;;;;;;;33.30;15.23;;;;;;;1.86;100.00;100307.75;4955394;28;20387;-68
2021/12/06 01:13:43;;;;;;;32.58;14.68;;;;;;;1.92;100.00;100305.31;4953133;28;20506;-62
2021/12/06 01:16:29;;;;;;;31.10;15.57;;;;;;;1.90;100.00;100306.13;4963931;28;20113;-61
2021/12/06 01:19:15;;;;;;;32.25;15.10;;;;;;;1.74;100.00;100302.25;4963908;28;20061;-65
2021/12/06 01:22:15;;;;;;;35.85;16.70;;;;;;;1.98;100.00;100304.56;4972724;28;20077;-58
2021/12/06 01:25:06;;;;;;;31.45;15.80;;;;;;;2.07;100.00;100303.03;4970843;28;20049;-60
2021/12/06 01:33:43;;;;;;;37.13;17.20;;;;;;;2.41;100.00;100292.44;4965191;28;20037;-61
2021/12/06 01:39:33;;;;;;;36.63;17.38;;;;;;;2.44;100.00;100307.31;4987082;28;20064;-61
2021/12/06 01:42:18;;;;;;;35.55;17.08;;;;;;;2.52;100.00;100306.63;4969348;28;20153;-58
2021/12/06 01:45:05;;;;;;;36.83;17.98;;;;;;;2.67;100.00;100316.50;4952789;28;20410;-62
2021/12/06 01:47:51;;;;;;;38.60;17.65;;;;;;;2.61;100.00;100321.63;4971426;28;20049;-61
2021/12/06 01:50:38;;;;;;;37.25;17.70;;;;;;;2.55;100.00;100317.16;4980952;28;20140;-61
2021/12/06 01:53:22;;;;;;;34.60;17.85;;;;;;;2.63;100.00;100315.56;4975614;28;20045;-62
2021/12/06 01:56:07;;;;;;;36.45;16.63;;;;;;;2.63;100.00;100320.81;4982751;28;20121;-62
2021/12/06 01:58:53;;;;;;;38.30;17.67;;;;;;;2.71;100.00;100320.94;4951723;28;20178;-63
2021/12/06 02:01:40;;;;;;;38.35;18.10;;;;;;;2.73;100.00;100317.50;4975308;28;20493;-62
2021/12/06 02:04:26;;;;;;;44.42;18.92;;;;;;;2.71;100.00;100320.94;4954489;28;20041;-66
2021/12/06 02:07:16;;;;;;;46.05;19.25;;;;;;;2.79;100.00;100324.59;4968122;28;20093;-66
2021/12/06 02:10:07;;;;;;;51.90;19.98;;;;;;;2.74;100.00;100319.31;4984309;28;20496;-65
2021/12/06 02:12:53;;;;;;;41.88;17.80;;;;;;;2.79;100.00;100324.59;4955473;28;20050;-64
2021/12/06 02:15:44;;;;;;;48.53;18.95;;;;;;;2.87;100.00;100331.78;4939843;28;20053;-64
2021/12/06 02:21:29;;;;;;;43.88;18.15;;;;;;;2.85;100.00;100338.69;4963212;28;20446;-61
2021/12/06 02:24:16;;;;;;;40.85;17.58;;;;;;;2.90;100.00;100339.69;4953845;28;20041;-63
2021/12/06 02:27:01;;;;;;;35.72;15.85;;;;;;;2.76;100.00;100335.00;4965657;28;20181;-61
2021/12/06 02:29:50;;;;;;;27.48;13.45;;;;;;;2.75;100.00;100346.34;4972983;28;20418;-58
2021/12/06 02:32:35;;;;;;;33.70;13.70;;;;;;;2.65;100.00;100344.41;4970739;28;20080;-61
2021/12/06 02:35:23;;;;;;;29.20;13.48;;;;;;;2.27;100.00;100346.22;4972928;28;20053;-64
2021/12/06 02:38:13;;;;;;;24.98;12.23;;;;;;;2.25;100.00;100344.41;4956834;28;20041;-60
2021/12/06 02:40:59;;;;;;;28.50;12.27;;;;;;;2.20;100.00;100339.06;4961380;28;20069;-58
2021/12/06 02:43:46;;;;;;;30.48;13.07;;;;;;;2.12;100.00;100334.50;4927383;28;20109;-58
2021/12/06 02:46:32;;;;;;;26.05;12.48;;;;;;;2.29;100.00;100344.50;4968625;28;20045;-59
2021/12/06 02:49:16;;;;;;;22.88;11.70;;;;;;;2.13;100.00;100338.91;4955423;28;20061;-65
2021/12/06 02:52:01;;;;;;;21.92;12.07;;;;;;;1.76;100.00;100342.41;4979143;28;20053;-58
2021/12/06 02:54:55;;;;;;;26.83;12.95;;;;;;;1.90;100.00;100333.13;4983554;28;20068;-57
2021/12/06 02:57:45;;;;;;;24.92;12.02;;;;;;;2.13;100.00;100336.31;4943061;28;20104;-55
2021/12/06 03:00:31;;;;;;;25.88;11.38;;;;;;;2.20;100.00;100351.25;4952132;28;20121;-59
2021/12/06 03:03:18;;;;;;;22.27;10.88;;;;;;;2.33;100.00;100351.56;4936172;28;20402;-62
2021/12/06 03:06:07;;;;;;;21.83;10.48;;;;;;;2.43;100.00;100368.34;4966197;28;20406;-66
2021/12/06 03:09:02;;;;;;;27.13;10.90;;;;;;;2.52;100.00;100366.81;4970716;28;20037;-64
2021/12/06 03:11:54;;;;;;;22.08;10.25;;;;;;;2.41;100.00;100364.84;4983613;28;20077;-67
2021/12/06 03:14:46;;;;;;;27.42;12.07;;;;;;;2.27;100.00;100372.38;4953845;28;20081;-58
2021/12/06 03:17:33;;;;;;;23.05;10.48;;;;;;;2.16;100.00;100375.56;4962118;28;20074;-58
2021/12/06 03:20:18;;;;;;;22.23;10.27;;;;;;;2.16;100.00;100381.72;4980891;28;20053;-55
2021/12/06 03:23:04;;;;;;;23.60;10.57;;;;;;;1.92;100.00;100386.38;4969401;28;20050;-57
2021/12/06 03:25:48;;;;;;;;;;;;;;;1.93;100.00;100384.66;4968573;28;20483;-56
2021/12/06 03:28:39;;;;;;;24.88;10.88;;;;;;;1.90;100.00;100390.66;4973287;28;20400;-60
2021/12/06 03:31:26;;;;;;;22.35;9.85;;;;;;;1.82;100.00;100396.56;4963200;28;20104;-57
2021/12/06 03:34:15;;;;;;;27.38;10.68;;;;;;;1.23;100.00;100392.41;4974978;28;20128;-67
2021/12/06 03:37:05;;;;;;;21.98;9.35;;;;;;;1.22;100.00;100402.84;4988673;28;20053;-54
2021/12/06 03:39:52;;;;;;;22.10;10.10;;;;;;;1.26;100.00;100399.47;4988613;28;20448;-57
2021/12/06 03:42:49;;;;;;;20.83;10.82;;;;;;;1.13;100.00;100398.22;4974384;28;20057;-67
2021/12/06 03:45:36;;;;;;;25.80;10.93;;;;;;;1.11;100.00;100392.06;4971138;28;20057;-57
2021/12/06 03:48:20;;;;;;;19.48;9.32;;;;;;;0.99;100.00;100402.19;4968544;28;20096;-55
2021/12/06 03:51:06;;;;;;;19.20;9.57;;;;;;;1.06;100.00;100387.59;4969621;28;20493;-57
2021/12/06 03:53:51;;;;;;;20.90;9.00;;;;;;;1.24;100.00;100390.69;4989596;28;20053;-56
2021/12/06 03:56:39;;;;;;;17.35;8.52;;;;;;;1.32;100.00;100389.16;4974507;28;20497;-58
2021/12/06 03:59:25;;;;;;;14.45;8.63;;;;;;;1.45;100.00;100405.19;4989776;28;20052;-56
2021/12/06 04:02:11;;;;;;;19.50;8.32;;;;;;;1.59;100.00;100400.31;4958036;28;20070;-57
2021/12/06 04:04:56;;;;;;;15.20;8.07;;;;;;;1.75;100.00;100407.72;4976555;28;20112;-65
2021/12/06 04:07:45;;;;;;;14.90;7.25;;;;;;;1.94;100.00;100402.97;4974300;28;20061;-64
2021/12/06 04:10:31;;;;;;;19.38;8.43;;;;;;;1.85;100.00;100410.59;4960173;28;20093;-62
2021/12/06 04:13:17;;;;;;;17.60;7.50;;;;;;;1.73;100.00;100422.44;4975008;28;20513;-60
2021/12/06 04:16:03;;;;;;;16.15;8.10;;;;;;;1.62;100.00;100424.81;4980128;28;20050;-71
2021/12/06 04:18:49;;;;;;;14.70;7.35;;;;;;;1.75;100.00;100433.84;4942249;28;20118;-67
2021/12/06 04:21:37;;;;;;;15.20;7.38;;;;;;;1.77;100.00;100438.28;4957730;28;20053;-65
2021/12/06 04:24:22;;;;;;;12.80;6.78;;;;;;;1.79;100.00;100430.47;4946822;28;20506;-65
2021/12/06 04:27:15;;;;;;;12.75;6.82;;;;;;;1.75;100.00;100431.25;4973393;28;20133;-64
2021/12/06 04:30:04;;;;;;;13.55;7.05;;;;;;;1.57;100.00;100439.47;4972229;28;20521;-72
2021/12/06 04:32:52;;;;;;;17.73;7.30;;;;;;;1.68;100.00;100435.44;4956007;28;20126;-65
2021/12/06 04:35:38;;;;;;;14.60;7.28;;;;;;;1.88;100.00;100449.00;4969459;28;20133;-61
2021/12/06 04:38:25;;;;;;;17.38;7.65;;;;;;;1.79;100.00;100443.53;4968935;28;20070;-67
2021/12/06 04:41:10;;;;;;;17.77;8.27;;;;;;;1.68;100.00;100445.88;4954384;28;20073;-62
2021/12/06 04:43:55;;;;;;;17.70;7.85;;;;;;;1.43;100.00;100446.09;4974952;28;20061;-66
2021/12/06 04:46:39;;;;;;;19.17;8.70;;;;;;;1.40;100.00;100453.84;4981324;28;20068;-64
2021/12/06 04:49:26;;;;;;;14.20;7.50;;;;;;;1.68;100.00;100464.19;4966808;28;20297;-60
2021/12/06 04:52:15;;;;;;;11.13;6.38;;;;;;;1.75;100.00;100460.00;4940821;28;20064;-64
2021/12/06 04:55:07;;;;;;;12.25;6.22;;;;;;;1.71;100.00;100464.25;4975384;28;20497;-69
2021/12/06 04:57:54;;;;;;;10.40;5.55;;;;;;;1.62;100.00;100463.13;4968055;28;20041;-62
2021/12/06 05:00:48;;;;;;;12.57;6.60;;;;;;;1.46;100.00;100455.72;4970019;28;20065;-62
2021/12/06 05:03:36;;;;;;;13.45;6.47;;;;;;;1.65;100.00;100460.56;4968684;28;20105;-65
2021/12/06 05:06:27;;;;;;;14.50;6.65;;;;;;;1.87;100.00;100453.34;4965720;28;20445;-61
2021/12/06 05:09:18;;;;;;;14.10;7.40;;;;;;;1.60;100.00;100464.81;4951332;28;20041;-57
2021/12/06 05:12:05;;;;;;;12.70;6.97;;;;;;;1.45;100.00;100462.69;4980430;28;20045;-58
2021/12/06 05:14:51;;;;;;;14.68;7.43;;;;;;;1.37;100.00;100458.97;4982275;28;20042;-65
2021/12/06 05:17:36;;;;;;;17.23;7.50;;;;;;;1.41;100.00;100465.16;4944855;28;20465;-57
2021/12/06 05:20:21;;;;;;;15.75;7.95;;;;;;;1.57;100.00;100468.22;4969738;28;20061;-61
2021/12/06 05:23:10;;;;;;;17.17;8.23;;;;;;;1.61;100.00;100469.19;4961119;28;20121;-55
2021/12/06 05:25:54;;;;;;;21.15;9.40;;;;;;;1.54;100.00;100475.13;4949756;28;20041;-56
2021/12/06 05:28:43;;;;;;;18.33;8.60;;;;;;;1.56;100.00;100482.16;4977288;28;20061;-59
2021/12/06 05:31:30;;;;;;;16.08;8.27;;;;;;;1.52;100.00;100484.63;4961420;28;20109;-59
2021/12/06 05:34:19;;;;;;;18.33;8.77;;;;;;;1.26;100.00;100480.44;4952452;28;20097;-61
2021/12/06 05:37:07;;;;;;;17.33;8.05;;;;;;;1.18;100.00;100485.41;4986748;28;20065;-56
2021/12/06 05:39:54;;;;;;;17.67;8.40;;;;;;;1.20;100.00;100485.47;4986536;28;20452;-63
2021/12/06 05:42:38;;;;;;;20.48;9.45;;;;;;;1.29;100.00;100486.63;4970388;28;20386;-69
2021/12/06 05:45:26;;;;;;;15.38;8.02;;;;;;;1.50;100.00;100479.34;4972454;28;20053;-65
2021/12/06 05:48:11;;;;;;;21.63;9.98;;;;;;;1.48;100.00;100481.06;4952241;28;20070;-61
2021/12/06 05:50:57;;;;;;;17.42;8.65;;;;;;;1.52;100.00;100487.25;4975807;28;20057;-65
2021/12/06 05:53:41;;;;;;;21.50;9.60;;;;;;;1.40;100.00;100495.63;4980832;28;20065;-64
2021/12/06 05:56:26;;;;;;;25.55;12.85;;;;;;;1.10;100.00;100493.91;4984433;28;20390;-64
2021/12/06 05:59:12;;;;;;;30.08;13.73;;;;;;;0.78;100.00;100492.06;4976224;28;20112;-63
2021/12/06 06:01:56;;;;;;;37.10;15.63;;;;;;;0.86;100.00;100486.22;4968361;28;20505;-67
2021/12/06 06:04:41;;;;;;;29.23;14.18;;;;;;;1.01;100.00;100498.81;4970277;28;20660;-66
2021/12/06 06:07:25;;;;;;;27.17;13.80;;;;;;;0.70;100.00;100496.16;4968346;28;20504;-65
2021/12/06 06:10:10;;;;;;;24.88;12.30;;;;;;;0.77;100.00;100495.47;4985441;28;20057;-60
2021/12/06 06:12:55;;;;;;;28.33;12.77;;;;;;;0.68;100.00;100497.81;4970433;28;20431;-57
2021/12/06 06:15:40;;;;;;;29.80;14.05;;;;;;;0.71;100.00;100497.94;4983389;28;20042;-57
2021/12/06 06:18:25;;;;;;;31.20;15.50;;;;;;;0.68;100.00;100498.72;4983422;28;20137;-57
2021/12/06 06:21:11;;;;;;;30.25;14.73;;;;;;;0.63;100.00;100495.06;4981441;28;20053;-65
2021/12/06 06:23:56;;;;;;;30.45;14.35;;;;;;;0.62;100.00;100514.19;4985515;28;20115;-62
2021/12/06 06:26:40;;;;;;;34.42;16.63;;;;;;;0.52;100.00;100512.13;4982525;28;20057;-63
2021/12/06 06:29:24;;;;;;;34.67;16.55;;;;;;;0.63;100.00;100523.75;4984780;28;20126;-62
2021/12/06 06:32:09;;;;;;;33.90;15.57;;;;;;;0.60;100.00;100515.88;4970239;28;20049;-62
2021/12/06 06:34:54;;;;;;;36.50;14.90;;;;;;;0.68;100.00;100522.22;4982572;28;20411;-67
2021/12/06 06:37:38;;;;;;;35.20;15.52;;;;;;;0.36;100.00;100522.03;4966597;28;20049;-63
2021/12/06 06:40:25;;;;;;;31.45;14.30;;;;;;;0.43;100.00;100530.06;4985409;28;20489;-60
2021/12/06 06:43:10;;;;;;;30.92;14.68;;;;;;;0.46;100.00;100538.00;4980770;28;20286;-61
2021/12/06 06:45:54;;;;;;;30.23;14.23;;;;;;;0.56;100.00;100541.81;4980702;28;20049;-61
2021/12/06 06:48:39;;;;;;;28.08;13.00;;;;;;;0.21;100.00;100530.25;4982161;28;20100;-64
2021/12/06 06:51:25;;;;;;;31.33;13.63;;;;;;;0.32;100.00;100549.75;4984931;28;20112;-61
2021/12/06 06:54:09;;;;;;;29.58;13.40;;;;;;;0.43;100.00;100555.31;4987441;28;20541;-60
2021/12/06 06:56:54;;;;;;;29.27;12.63;;;;;;;0.50;100.00;100552.03;4982826;28;20084;-64
2021/12/06 06:59:39;;;;;;;31.50;13.70;;;;;;;0.44;100.00;100547.53;4972841;28;20101;-70
2021/12/06 07:02:23;;;;;;;29.98;12.63;;;;;;;0.60;100.00;100547.19;4984323;28;20143;-59
2021/12/06 07:05:09;;;;;;;31.67;13.10;;;;;;;0.62;100.00;100549.81;4982896;28;20048;-53
2021/12/06 07:07:55;;;;;;;25.65;11.85;;;;;;;0.39;100.00;100561.25;4986488;28;20080;-61
2021/12/06 07:10:40;;;;;;;27.92;11.88;;;;;;;0.41;100.00;100555.25;4987287;28;20955;-57
2021/12/06 07:13:27;;;;;;;;;;;;;;;0.56;100.00;100555.75;4956443;28;20439;-57
2021/12/06 07:16:12;;;;;;;28.58;11.60;;;;;;;0.51;100.00;100556.44;4977142;28;19952;-58
2021/12/06 07:18:58;;;;;;;26.73;11.82;;;;;;;0.35;100.00;100548.94;4970844;28;20180;-68
2021/12/06 07:21:43;;;;;;;29.77;12.38;;;;;;;0.38;100.00;100564.66;4990215;28;20041;-55
2021/12/06 07:24:27;;;;;;;28.48;12.50;;;;;;;0.41;100.00;100570.91;4985564;28;20073;-59
2021/12/06 07:27:12;;;;;;;25.90;11.45;;;;;;;0.19;100.00;100575.34;4959425;28;20065;-60
2021/12/06 07:29:57;;;;;;;29.83;11.65;;;;;;;0.36;100.00;100571.56;4988057;28;20137;-58
2021/12/06 07:32:42;;;;;;;;;;;;;;;0.31;100.00;100581.84;4987061;28;20114;-63
2021/12/06 07:35:29;;;;;;;32.03;11.77;;;;;;;0.28;100.00;100573.94;4981194;28;20320;-68
2021/12/06 07:38:14;;;;;;;28.27;11.98;;;;;;;0.41;100.00;100581.31;4967153;28;20422;-70
2021/12/06 07:40:59;;;;;;;34.28;13.25;;;;;;;0.19;100.00;100573.63;4969871;28;20399;-65
2021/12/06 07:43:45;;;;;;;29.58;12.35;;;;;;;-0.01;100.00;100572.03;4959050;28;20374;-66
2021/12/06 07:46:29;;;;;;;33.72;13.88;;;;;;;0.22;100.00;100591.97;4961894;28;20049;-67
2021/12/06 07:49:14;;;;;;;34.80;14.70;;;;;;;0.20;100.00;100593.66;4988789;28;20097;-63
2021/12/06 07:51:58;;;;;;;36.03;14.95;;;;;;;0.35;100.00;100586.31;4983487;28;20056;-66
2021/12/06 07:54:44;;;;;;;36.33;14.90;;;;;;;0.33;100.00;100579.28;4981450;28;20053;-69
2021/12/06 07:57:29;;;;;;;37.83;15.40;;;;;;;0.19;100.00;100591.00;4986326;28;20085;-70
2021/12/06 08:00:21;;;;;;;39.65;14.95;;;;;;;0.32;100.00;100586.25;4972210;28;20142;-69
2021/12/06 08:03:08;;;;;;;36.53;15.57;;;;;;;0.01;100.00;100593.84;4983012;28;20045;-65
2021/12/06 08:05:54;;;;;;;42.33;16.02;;;;;;;0.08;100.00;100587.13;4971770;28;20092;-65
2021/12/06 08:08:40;;;;;;;43.08;16.35;;;;;;;0.15;100.00;100584.78;4983306;28;20073;-67
2021/12/06 08:11:25;;;;;;;47.63;17.90;;;;;;;0.13;100.00;100578.63;4966611;28;20108;-68
2021/12/06 08:14:11;;;;;;;46.67;18.20;;;;;;;0.21;100.00;100579.78;4984874;28;20038;-68
2021/12/06 08:16:57;;;;;;;40.67;16.38;;;;;;;0.17;100.00;100586.59;4969179;28;20146;-66
2021/12/06 08:19:42;;;;;;;41.92;17.20;;;;;;;0.19;100.00;100586.66;4986752;28;20137;-66
2021/12/06 08:22:27;;;;;;;37.60;16.05;;;;;;;0.12;100.00;100584.69;4984594;28;20049;-64
2021/12/06 08:25:14;;;;;;;40.00;16.15;;;;;;;0.29;100.00;100588.75;4974107;28;20101;-71
2021/12/06 08:28:00;;;;;;;36.90;16.30;;;;;;;0.31;100.00;100589.66;4973354;28;20129;-72
2021/12/06 08:30:47;;;;;;;38.38;17.83;;;;;;;0.36;100.00;100587.22;4968392;28;20077;-69
2021/12/06 08:33:33;;;;;;;41.05;19.55;;;;;;;0.20;100.00;100585.84;4971313;28;20139;-69
2021/12/06 08:36:20;;;;;;;40.95;17.90;;;;;;;0.03;100.00;100586.09;4969228;28;20136;-71
2021/12/06 08:39:07;;;;;;;42.13;18.58;;;;;;;-0.05;100.00;100598.84;4977077;28;20077;-73
2021/12/06 08:41:52;;;;;;;39.17;17.80;;;;;;;-0.09;100.00;100607.38;4970824;28;20048;-70
2021/12/06 08:44:37;;;;;;;41.75;17.55;;;;;;;0.04;100.00;100607.88;4954641;28;20455;-70
2021/12/06 08:47:21;;;;;;;39.70;17.77;;;;;;;0.03;100.00;100613.94;4969157;28;20081;-66
2021/12/06 08:50:10;;;;;;;41.78;17.38;;;;;;;-0.06;100.00;100617.94;4953461;28;20045;-67
2021/12/06 08:52:56;;;;;;;35.88;16.77;;;;;;;-0.16;100.00;100614.09;4983970;28;20040;-67
2021/12/06 08:55:43;;;;;;;35.55;15.98;;;;;;;0.13;100.00;100624.66;4968958;28;20036;-68
2021/12/06 08:58:28;;;;;;;37.08;16.73;;;;;;;0.31;100.00;100617.50;4953636;28;20044;-73
2021/12/06 09:01:14;;;;;;;39.70;17.27;;;;;;;0.05;100.00;100612.25;4944017;28;20453;-67
2021/12/06 09:03:59;;;;;;;32.65;15.27;;;;;;;0.32;100.00;100617.53;4961024;28;20061;-71
2021/12/06 09:06:50;;;;;;;37.85;16.20;;;;;;;0.29;100.00;100617.44;4972518;28;20069;-71
2021/12/06 09:09:34;;;;;;;35.72;16.48;;;;;;;0.11;100.00;100606.34;4968738;28;20116;-66
2021/12/06 09:12:25;;;;;;;34.42;15.82;;;;;;;0.11;100.00;100618.53;4970405;28;20061;-76
2021/12/06 09:15:17;;;;;;;37.00;16.25;;;;;;;0.00;100.00;100619.03;4971610;28;20117;-74
2021/12/06 09:18:04;;;;;;;35.03;16.27;;;;;;;-0.01;100.00;100604.22;4973963;28;20049;-68
2021/12/06 09:20:51;;;;;;;31.42;15.55;;;;;;;-0.20;100.00;100598.28;4975310;28;20593;-79
2021/12/06 09:23:36;;;;;;;32.90;14.82;;;;;;;-0.06;100.00;100597.97;4985645;28;20614;-65
2021/12/06 09:26:21;;;;;;;32.17;14.55;;;;;;;-0.07;100.00;100601.38;4981184;28;20066;-70
2021/12/06 09:29:09;;;;;;;30.83;15.02;;;;;;;-0.12;100.00;100605.56;4964900;28;20061;-68
2021/12/06 09:31:59;;;;;;;30.33;14.30;;;;;;;0.13;100.00;100614.22;4970054;28;20172;-70
2021/12/06 09:34:47;;;;;;;28.65;14.13;;;;;;;0.23;100.00;100619.81;4956138;28;20096;-73
2021/12/06 09:37:36;;;;;;;29.92;14.57;;;;;;;0.01;100.00;100605.16;4956995;28;20049;-71
2021/12/06 09:40:23;;;;;;;32.13;13.73;;;;;;;0.08;100.00;100610.59;4956840;28;20049;-67
2021/12/06 09:43:11;;;;;;;30.83;14.00;;;;;;;-0.15;100.00;100588.94;4966208;28;20040;-69
2021/12/06 09:45:57;;;;;;;30.25;14.60;;;;;;;0.13;100.00;100605.56;4980885;28;20573;-67
2021/12/06 09:48:45;;;;;;;30.27;14.90;;;;;;;0.18;100.00;100600.53;4956346;28;20042;-76
2021/12/06 09:51:30;;;;;;;28.85;14.45;;;;;;;0.15;100.00;100595.19;4951571;28;20065;-68
2021/12/06 09:54:14;;;;;;;27.10;13.23;;;;;;;0.09;100.00;100616.72;4979980;28;20061;-69
2021/12/06 09:57:01;;;;;;;30.80;14.40;;;;;;;0.02;100.00;100632.13;4983970;28;20049;-69
2021/12/06 09:59:46;;;;;;;28.65;13.52;;;;;;;0.07;100.00;100632.28;4981769;28;20052;-63
2021/12/06 10:02:32;;;;;;;26.13;12.73;;;;;;;0.33;100.00;100632.34;4984221;28;20056;-66
2021/12/06 10:05:17;;;;;;;29.00;14.07;;;;;;;0.51;100.00;100635.56;4960121;28;20336;-65
2021/12/06 10:08:03;;;;;;;26.55;13.52;;;;;;;0.50;100.00;100632.91;4965326;28;20081;-68
2021/12/06 10:10:48;;;;;;;25.83;12.65;;;;;;;0.44;100.00;100636.22;4983935;28;20065;-63
2021/12/06 10:13:35;;;;;;;23.42;12.50;;;;;;;0.15;100.00;100633.44;4983269;28;20435;-66
2021/12/06 10:16:20;;;;;;;23.08;11.77;;;;;;;0.23;100.00;100618.94;4982542;28;20045;-66
2021/12/06 10:19:06;;;;;;;25.15;12.60;;;;;;;0.07;100.00;100624.47;4968502;28;20085;-63
2021/12/06 10:21:53;;;;;;;20.88;11.25;;;;;;;0.28;100.00;100618.28;4966953;28;20065;-76
2021/12/06 10:24:37;;;;;;;20.48;11.35;;;;;;;0.33;100.00;100621.00;4985303;28;20458;-68
2021/12/06 10:27:23;;;;;;;21.45;11.52;;;;;;;0.43;100.00;100625.72;4978344;28;20058;-69
2021/12/06 10:30:11;;;;;;;27.33;12.40;;;;;;;0.15;100.00;100621.28;4968820;28;20528;-65
2021/12/06 10:33:24;;;;;;;22.20;11.35;;;;;;;0.44;100.00;100627.50;4965960;28;20141;-61
2021/12/06 10:36:13;;;;;;;24.63;11.70;;;;;;;0.63;100.00;100638.56;4964209;28;20053;-59
2021/12/06 10:39:08;;;;;;;20.50;11.02;;;;;;;0.73;100.00;100624.09;4981598;28;20685;-66
2021/12/06 10:41:53;;;;;;;22.60;12.10;;;;;;;0.68;100.00;100602.22;4966825;28;20123;-59
2021/12/06 10:44:50;;;;;;;20.30;11.05;;;;;;;0.65;100.00;100608.22;4984750;28;20069;-58
2021/12/06 10:47:35;;;;;;;17.85;9.75;;;;;;;0.39;100.00;100616.03;4941497;28;20064;-70
2021/12/06 10:50:20;;;;;;;18.77;10.35;;;;;;;0.24;100.00;100624.22;4940166;28;20149;-60
2021/12/06 10:53:05;;;;;;;20.85;10.60;;;;;;;0.41;100.00;100627.38;4972240;28;20074;-60
2021/12/06 10:55:53;;;;;;;19.98;10.98;;;;;;;0.64;100.00;100624.72;4961792;28;20089;-66
2021/12/06 10:58:38;;;;;;;20.55;11.25;;;;;;;0.73;100.00;100617.19;4960355;28;20077;-56
2021/12/06 11:01:31;;;;;;;23.77;12.93;;;;;;;0.82;100.00;100600.94;4970557;28;20096;-69
2021/12/06 11:04:20;;;;;;;23.33;11.38;;;;;;;0.73;100.00;100617.19;4965709;28;20164;-64
2021/12/06 11:07:06;;;;;;;21.20;10.82;;;;;;;0.45;100.00;100621.44;4966217;28;20773;-64
2021/12/06 11:09:52;;;;;;;20.27;11.10;;;;;;;0.37;100.00;100626.41;4984378;28;20042;-61
2021/12/06 11:12:37;;;;;;;19.27;11.00;;;;;;;0.56;100.00;100647.06;4969628;28;20077;-64
2021/12/06 11:15:21;;;;;;;20.92;11.48;;;;;;;0.60;100.00;100633.28;4971079;28;20041;-68
2021/12/06 11:18:06;;;;;;;19.42;10.60;;;;;;;0.73;100.00;100637.16;4985252;28;20097;-65
2021/12/06 11:20:51;;;;;;;18.80;10.65;;;;;;;0.71;100.00;100629.28;4941048;28;20054;-61
2021/12/06 11:23:54;;;;;;;;;;;;;;;0.81;100.00;100651.34;4982578;28;20532;-65
2021/12/06 11:26:48;;;;;;;24.38;10.77;;;;;;;0.78;100.00;100652.13;4981956;28;19920;-66
2021/12/06 11:29:35;;;;;;;22.80;11.63;;;;;;;0.60;100.00;100648.03;4968407;28;20108;-65
2021/12/06 11:32:31;;;;;;;21.20;11.07;;;;;;;0.60;100.00;100641.09;4982042;28;20045;-66
2021/12/06 11:35:19;;;;;;;20.70;10.75;;;;;;;0.54;100.00;100640.88;4985766;28;20509;-63
2021/12/06 11:38:04;;;;;;;22.45;10.98;;;;;;;0.55;100.00;100627.00;4969395;28;20450;-67
2021/12/06 11:40:49;;;;;;;19.55;10.38;;;;;;;0.53;100.00;100636.50;4974070;28;20096;-64
2021/12/06 11:43:37;;;;;;;18.75;10.30;;;;;;;0.68;100.00;100641.34;4953443;28;20053;-62
2021/12/06 11:46:31;;;;;;;18.83;10.73;;;;;;;0.41;100.00;100643.94;4984425;28;20053;-68
2021/12/06 11:49:20;;;;;;;18.95;10.93;;;;;;;0.49;100.00;100652.00;4986677;28;20379;-60
2021/12/06 11:52:09;;;;;;;22.42;11.18;;;;;;;0.41;100.00;100666.50;4984644;28;20065;-65
2021/12/06 11:55:09;;;;;;;18.90;10.18;;;;;;;0.68;100.00;100680.50;4970401;28;20500;-70
2021/12/06 11:57:56;;;;;;;21.33;10.52;;;;;;;0.42;100.00;100657.84;4986496;28;20101;-67
2021/12/06 12:00:40;;;;;;;22.70;11.93;;;;;;;0.52;100.00;100647.78;4982900;28;20060;-65
2021/12/06 12:03:32;;;;;;;25.55;11.82;;;;;;;0.58;100.00;100647.09;4987082;28;20049;-69
2021/12/06 12:06:37;;;;;;;23.15;11.60;;;;;;;0.49;100.00;100649.41;4971653;28;20548;-65
2021/12/06 12:09:30;;;;;;;22.42;10.40;;;;;;;0.59;100.00;100651.50;4986885;28;20502;-65
2021/12/06 12:12:22;;;;;;;22.02;10.30;;;;;;;0.70;100.00;100652.75;4955456;28;20042;-64
2021/12/06 12:15:07;;;;;;;22.27;10.45;;;;;;;0.56;100.00;100661.81;4963736;28;20344;-67
2021/12/06 12:17:53;;;;;;;23.02;10.60;;;;;;;0.63;100.00;100666.41;4975447;28;20050;-62
2021/12/06 12:20:38;;;;;;;18.73;10.20;;;;;;;0.74;100.00;100670.28;4966396;28;20084;-75
2021/12/06 12:23:26;;;;;;;20.08;10.15;;;;;;;0.68;100.00;100665.72;4980898;28;20093;-64
2021/12/06 12:26:14;;;;;;;22.35;11.20;;;;;;;0.78;100.00;100661.72;4971786;28;20499;-61
2021/12/06 12:29:12;;;;;;;22.90;11.85;;;;;;;0.84;100.00;100661.88;4959976;28;20510;-58
2021/12/06 12:32:03;;;;;;;21.58;10.98;;;;;;;1.00;100.00;100662.44;4937979;28;20053;-66
2021/12/06 12:34:51;;;;;;;25.35;11.98;;;;;;;1.02;100.00;100652.91;4957849;28;20105;-63
2021/12/06 12:37:40;;;;;;;26.80;11.45;;;;;;;0.96;100.00;100662.28;4953760;28;20195;-64
2021/12/06 12:40:48;;;;;;;23.40;10.88;;;;;;;0.90;100.00;100659.50;4950992;28;20128;-69
2021/12/06 12:44:03;;;;;;;27.10;11.98;;;;;;;0.90;100.00;100652.53;4965042;28;20052;-66
2021/12/06 12:46:50;;;;;;;29.98;13.05;;;;;;;0.81;100.00;100653.94;4963744;28;20037;-66
2021/12/06 12:49:45;;;;;;;35.75;12.50;;;;;;;0.93;100.00;100660.47;4953667;28;20403;-67
2021/12/06 12:52:39;;;;;;;33.42;13.30;;;;;;;0.83;100.00;100658.38;4985409;28;20045;-65
2021/12/06 12:55:27;;;;;;;26.63;11.77;;;;;;;0.88;100.00;100656.84;4964313;28;20508;-65